Kezdőlap
METAR-TAF:

METAR-TAF

Repülőterek :

Forlì repülőtér

Forlì, Olaszország

földrajzi szélesség: 44-12N, földrajzi hosszúság: 012-04E, magasság: 27 m

Jelenlegi meteorológiai megfigyelések

A jelentés 17 perccel ezelõtt készült, 11:50 UTC
Nyugati szél 4 kt
Hőmérséklet 13°C
Páratartalom 72%
Légköri nyomás 1024 hPa
Látótávolság: 2500 m
Párásság

METAR: LIPK 181150Z 28004KT 2500 BR VV/// 13/08 Q1024

Idő: 13:07 (12:07 UTC)


TAF: hiányzik

Meteorológiai megfigyelések és előrejelzések több, mint 4000 repülőtéren (METAR és TAF jelentéseket).

A térképen piros és sárga pontok jelzik az elérhető meteorológiai állomásokat.

Mozgassa az egeret a pont fölött, hogy megjelenjen az állomás neve.

Azután kattintson az időjárási megfigyelések és előrejelzések megtekintéséhez.

A térkép megváltoztatása: kattintson a fekete keresztel jelölt zöld gombra ráközelítéshez, a vonallal jelölt zöld gombra távolításhoz, vagy a zöld nyilakra a szomszédos térképek eléréséhez.


METAR-TAF: